Terminal Aerodrome Forecast
Issued by NWS Sioux Falls, SD

Home | Current Version | Previous Version | Graphics & Text | Print | Product List | Glossary On
Versions: 1 2 3 4 5 6 7 8 9 10 11 12 13
572
FTUS43 KFSD 060538
TAFHON
TAF
KHON 060538Z 0606/0706 21005KT P6SM SCT250
     FM061700 20009KT P6SM FEW250
     FM062200 23010KT P6SM SCT250
     FM070400 27015G21KT P6SM BKN250=

USA.gov is the U.S. government's official web portal to all federal, state and local government web resources and services.